Ararat, North Carolina
Current Conditions -  °F | °C
As of 6:55 AM on Sunday 25 Jan 2015 (Local Time) from KMWK Reporting Station
Clear Clear  
Wind Chill: 32°   Ceiling: Unl
Heat Index: 32°   Visibility: 10mi
Dew Point: 28°   Wind: 0mph
Humidity: 83%   Direction: NA
Pressure: 29.9"   Gusts: NA
Location:  36.4°N, 80.56°W
Report Text: KMWK 251155Z AUTO 00000KT 10SM CLR 00/M02 A2990 RMK AO2 70001 T00011024 10049 21011
Loading
Personal Weather Stations






























Interactive Weather Map New forecast layout! Learn more

10-Day Weather Forecast

Advertisements
Track Severe Weather on mobile